Flight Number: EUR1153 Duration: 2:00
Departure: Gatwick Airport (EGKK) at 05:45 Distance: 793 Nm
Arrival: Budapest Ferihegy (LHBP) at 07:45 Equipment: A321

Weather Information
London / Gatwick Airport, United Kingdom (EGKK) 51-09N 000-11W 0M Sep 21, 2017 - 05:20 PM EDT / 2017.09.21 2120 UTC
Wind: from the WSW (240 degrees) at 6 MPH (5 KT):0
Visibility: greater than 7 mile(s):0
Sky conditions: mostly clear Temperature: 53 F (12 C) Dew Point: 51 F (11 C) Relative Humidity: 93% Pressure (altimeter): 30.06 in. Hg (1018 hPa)
ob: EGKK 212120Z 24005KT 9999 FEW043 12/11 Q1018 cycle: 21
Sunrise: 05:50 Sunset: 17:57 (UTC)

Budapest / Ferihegy, Hungary (LHBP) 47-26N 019-16E 185M Sep 21, 2017 - 05:00 PM EDT / 2017.09.21 2100 UTC
Wind: from the NW (310 degrees) at 9 MPH (8 KT):0
Visibility: 4 mile(s):0
Sky conditions: mostly cloudy Temperature: 51 F (11 C) Dew Point: 50 F (10 C) Relative Humidity: 93% Pressure (altimeter): 29.94 in. Hg (1014 hPa)
ob: LHBP 212100Z 31008KT 8000 BKN046 11/10 Q1014 NOSIG cycle: 21
Sunrise: 04:32 Sunset: 16:39 (UTC)

TAF:2017/09/21 18:27 TAF TAF LHBP 211715Z 2118/2218 31014G24KT 9999 -RA FEW040 OVC070 TEMPO 2118/2121 RA BKN009 OVC040 BECMG 2121/2123 32009KT CAVOK TEMPO 2123/2208 -RA SCT010 BKN030 BECMG 2208/2210 BKN030 BECMG 2216/2218 CAVOK

Previous Pireps for this route
Date Aircraft Flight time Fuel used Landing rate On time
2013-03-24A3212.0250000No
2013-03-29A3212100000No
2013-04-02A3212200000No
2013-04-24A32102.0918198-171Yes
2013-11-08A3212.18139750No
2014-05-12A32102.0812675-245Yes
2015-08-02MD-8102.1313894-66Yes
2015-09-22MD-8102.0313656-96Yes
2015-12-10MD-8102.1613019-152Yes
2016-01-24MD-8102.1814034-118Yes
2016-03-26A3212.39178230No
2016-07-08MD-812.27123540Yes
(pireps marked green are flown by you)

Route map